SAG32A ZGGG-ZGSD
Flight info
| Callsign | SAG32A |
|---|---|
| Flight time | 0h 38m |
| Altitude | 3200 |
| Route | POU NLG ZUH ZGSD |
| Aircraft | H160/L-SFG/C |
Departure
| Time | 2026-04-25 04:23 |
|---|---|
| Airport | Guangzhou Baiyun International Airport (ZGGG) |
Arrival
| Time | 2026-04-25 05:02 |
|---|---|
| Airport | Zhuhai Jinwan Airport (ZGSD) |
| Time | Latitude | Longitude | Altitude | Speed | Heading |
|---|---|---|---|---|---|
| 2026-04-25 04:09 | 23.36603 | 113.29916 | 54 ft | 0 kts | 104° |
| 2026-04-25 04:20 | 23.36603 | 113.29919 | 77 ft | 0 kts | 103° |
| 2026-04-25 04:21 | 23.36602 | 113.29923 | 78 ft | 3 kts | 104° |
| 2026-04-25 04:21 | 23.36598 | 113.29956 | 54 ft | 5 kts | 72° |
| 2026-04-25 04:21 | 23.36628 | 113.29997 | 54 ft | 8 kts | 58° |
| 2026-04-25 04:21 | 23.36667 | 113.30016 | 51 ft | 7 kts | 15° |
| 2026-04-25 04:22 | 23.36711 | 113.30034 | 51 ft | 5 kts | 38° |
| 2026-04-25 04:22 | 23.36726 | 113.30068 | 54 ft | 5 kts | 94° |
| 2026-04-25 04:22 | 23.36717 | 113.30106 | 52 ft | 5 kts | 104° |
| 2026-04-25 04:22 | 23.36702 | 113.30173 | 52 ft | 15 kts | 103° |
| 2026-04-25 04:23 | 23.36661 | 113.30358 | 124 ft | 33 kts | 108° |
| 2026-04-25 04:23 | 23.36551 | 113.30643 | 268 ft | 56 kts | 118° |
| 2026-04-25 04:23 | 23.36253 | 113.30981 | 432 ft | 61 kts | 134° |
| 2026-04-25 04:23 | 23.35926 | 113.31288 | 656 ft | 70 kts | 136° |
| 2026-04-25 04:24 | 23.35479 | 113.31682 | 760 ft | 101 kts | 140° |
| 2026-04-25 04:24 | 23.34819 | 113.32219 | 820 ft | 131 kts | 146° |
| 2026-04-25 04:24 | 23.34067 | 113.32740 | 872 ft | 123 kts | 150° |
| 2026-04-25 04:24 | 23.33291 | 113.33212 | 859 ft | 136 kts | 153° |
| 2026-04-25 04:25 | 23.32450 | 113.33690 | 869 ft | 137 kts | 143° |
| 2026-04-25 04:25 | 23.31601 | 113.34179 | 965 ft | 137 kts | 146° |
| 2026-04-25 04:25 | 23.30752 | 113.34642 | 1128 ft | 138 kts | 144° |
| 2026-04-25 04:25 | 23.29889 | 113.35096 | 1296 ft | 139 kts | 145° |
| 2026-04-25 04:26 | 23.29002 | 113.35548 | 1490 ft | 143 kts | 147° |
| 2026-04-25 04:26 | 23.28054 | 113.36001 | 1676 ft | 153 kts | 156° |
| 2026-04-25 04:26 | 23.27076 | 113.36428 | 1894 ft | 151 kts | 159° |
| 2026-04-25 04:26 | 23.26098 | 113.36847 | 2093 ft | 152 kts | 158° |
| 2026-04-25 04:27 | 23.25115 | 113.37276 | 2297 ft | 152 kts | 157° |
| 2026-04-25 04:27 | 23.24138 | 113.37708 | 2499 ft | 151 kts | 150° |
| 2026-04-25 04:27 | 23.23163 | 113.38162 | 2683 ft | 154 kts | 155° |
| 2026-04-25 04:27 | 23.22176 | 113.38595 | 2845 ft | 152 kts | 156° |
| 2026-04-25 04:28 | 23.21191 | 113.39031 | 2895 ft | 158 kts | 158° |
| 2026-04-25 04:28 | 23.20145 | 113.39502 | 2967 ft | 163 kts | 156° |
| 2026-04-25 04:28 | 23.19095 | 113.39956 | 2970 ft | 162 kts | 158° |
| 2026-04-25 04:28 | 23.18054 | 113.40401 | 2958 ft | 161 kts | 158° |
| 2026-04-25 04:29 | 23.17007 | 113.40853 | 2963 ft | 162 kts | 158° |
| 2026-04-25 04:29 | 23.16266 | 113.41205 | 2908 ft | 115 kts | 144° |
| 2026-04-25 04:29 | 23.15437 | 113.41657 | 2814 ft | 151 kts | 158° |
| 2026-04-25 04:29 | 23.14385 | 113.41975 | 2884 ft | 156 kts | 166° |
| 2026-04-25 04:30 | 23.13336 | 113.42203 | 2896 ft | 154 kts | 167° |
| 2026-04-25 04:30 | 23.12276 | 113.42426 | 2910 ft | 155 kts | 168° |
| 2026-04-25 04:30 | 23.11215 | 113.42648 | 2908 ft | 155 kts | 169° |
| 2026-04-25 04:30 | 23.10165 | 113.42878 | 2924 ft | 154 kts | 169° |
| 2026-04-25 04:31 | 23.09133 | 113.43108 | 2916 ft | 154 kts | 168° |
| 2026-04-25 04:31 | 23.08083 | 113.43345 | 2929 ft | 153 kts | 169° |
| 2026-04-25 04:31 | 23.07041 | 113.43577 | 2913 ft | 153 kts | 169° |
| 2026-04-25 04:31 | 23.06004 | 113.43810 | 2914 ft | 152 kts | 168° |
| 2026-04-25 04:32 | 23.04948 | 113.44064 | 2913 ft | 159 kts | 167° |
| 2026-04-25 04:32 | 23.03871 | 113.44311 | 2916 ft | 159 kts | 168° |
| 2026-04-25 04:32 | 23.02789 | 113.44567 | 2918 ft | 159 kts | 169° |
| 2026-04-25 04:32 | 23.01709 | 113.44820 | 2918 ft | 159 kts | 168° |
| 2026-04-25 04:33 | 23.00627 | 113.45073 | 2916 ft | 159 kts | 168° |
| 2026-04-25 04:33 | 22.99545 | 113.45328 | 2916 ft | 159 kts | 168° |
| 2026-04-25 04:33 | 22.98463 | 113.45582 | 2919 ft | 159 kts | 167° |
| 2026-04-25 04:33 | 22.97384 | 113.45834 | 2910 ft | 158 kts | 168° |
| 2026-04-25 04:34 | 22.96304 | 113.46086 | 2907 ft | 159 kts | 168° |
| 2026-04-25 04:34 | 22.95217 | 113.46342 | 2913 ft | 159 kts | 168° |
| 2026-04-25 04:34 | 22.94138 | 113.46594 | 2911 ft | 159 kts | 168° |
| 2026-04-25 04:34 | 22.93059 | 113.46847 | 2909 ft | 158 kts | 168° |
| 2026-04-25 04:35 | 22.91983 | 113.47098 | 2918 ft | 158 kts | 169° |
| 2026-04-25 04:35 | 22.90905 | 113.47353 | 2905 ft | 159 kts | 167° |
| 2026-04-25 04:35 | 22.89823 | 113.47605 | 2915 ft | 158 kts | 168° |
| 2026-04-25 04:35 | 22.88747 | 113.47857 | 2914 ft | 159 kts | 168° |
| 2026-04-25 04:36 | 22.87668 | 113.48109 | 2911 ft | 159 kts | 167° |
| 2026-04-25 04:36 | 22.86568 | 113.48367 | 2918 ft | 163 kts | 167° |
| 2026-04-25 04:36 | 22.85469 | 113.48623 | 2919 ft | 161 kts | 168° |
| 2026-04-25 04:36 | 22.84747 | 113.48792 | 2904 ft | 161 kts | 167° |
| 2026-04-25 04:37 | 22.83656 | 113.49048 | 2911 ft | 161 kts | 167° |
| 2026-04-25 04:37 | 22.82185 | 113.49391 | 2921 ft | 162 kts | 167° |
| 2026-04-25 04:37 | 22.81462 | 113.49560 | 2917 ft | 159 kts | 168° |
| 2026-04-25 04:37 | 22.80380 | 113.49813 | 2911 ft | 159 kts | 167° |
| 2026-04-25 04:38 | 22.79292 | 113.50067 | 2916 ft | 160 kts | 168° |
| 2026-04-25 04:38 | 22.78212 | 113.50320 | 2908 ft | 159 kts | 167° |
| 2026-04-25 04:38 | 22.77122 | 113.50575 | 2913 ft | 161 kts | 167° |
| 2026-04-25 04:38 | 22.76030 | 113.50830 | 2915 ft | 160 kts | 168° |
| 2026-04-25 04:39 | 22.74942 | 113.51084 | 2912 ft | 161 kts | 168° |
| 2026-04-25 04:39 | 22.73844 | 113.51340 | 2917 ft | 161 kts | 168° |
| 2026-04-25 04:39 | 22.72739 | 113.51599 | 2912 ft | 162 kts | 168° |
| 2026-04-25 04:39 | 22.71636 | 113.51857 | 2918 ft | 162 kts | 168° |
| 2026-04-25 04:40 | 22.70542 | 113.52111 | 2912 ft | 160 kts | 168° |
| 2026-04-25 04:40 | 22.69446 | 113.52368 | 2912 ft | 162 kts | 167° |
| 2026-04-25 04:40 | 22.68346 | 113.52623 | 2917 ft | 160 kts | 168° |
| 2026-04-25 04:40 | 22.67254 | 113.52878 | 2905 ft | 160 kts | 168° |
| 2026-04-25 04:41 | 22.66184 | 113.53128 | 2904 ft | 159 kts | 168° |
| 2026-04-25 04:41 | 22.65098 | 113.53382 | 2913 ft | 161 kts | 167° |
| 2026-04-25 04:41 | 22.64010 | 113.53636 | 2899 ft | 161 kts | 167° |
| 2026-04-25 04:41 | 22.62907 | 113.53892 | 2921 ft | 161 kts | 168° |
| 2026-04-25 04:42 | 22.61821 | 113.54146 | 2907 ft | 159 kts | 167° |
| 2026-04-25 04:42 | 22.60723 | 113.54402 | 2913 ft | 162 kts | 167° |
| 2026-04-25 04:42 | 22.59627 | 113.54658 | 2911 ft | 161 kts | 167° |
| 2026-04-25 04:42 | 22.58525 | 113.54913 | 2913 ft | 162 kts | 167° |
| 2026-04-25 04:43 | 22.57430 | 113.55168 | 2915 ft | 159 kts | 168° |
| 2026-04-25 04:43 | 22.56345 | 113.55422 | 2913 ft | 161 kts | 168° |
| 2026-04-25 04:43 | 22.55249 | 113.55678 | 2910 ft | 160 kts | 169° |
| 2026-04-25 04:43 | 22.54164 | 113.55925 | 2906 ft | 160 kts | 171° |
| 2026-04-25 04:44 | 22.53053 | 113.55903 | 2911 ft | 160 kts | 189° |
| 2026-04-25 04:44 | 22.51960 | 113.55677 | 2910 ft | 160 kts | 194° |
| 2026-04-25 04:44 | 22.50876 | 113.55390 | 2912 ft | 160 kts | 196° |
| 2026-04-25 04:44 | 22.49802 | 113.55078 | 2910 ft | 160 kts | 197° |
| 2026-04-25 04:45 | 22.48726 | 113.54762 | 2906 ft | 161 kts | 197° |
| 2026-04-25 04:45 | 22.47639 | 113.54431 | 2907 ft | 163 kts | 197° |
| 2026-04-25 04:45 | 22.46549 | 113.54089 | 2905 ft | 163 kts | 198° |
| 2026-04-25 04:45 | 22.45468 | 113.53747 | 2908 ft | 161 kts | 198° |
| 2026-04-25 04:46 | 22.44381 | 113.53411 | 2904 ft | 163 kts | 198° |
| 2026-04-25 04:46 | 22.43299 | 113.53072 | 2900 ft | 160 kts | 198° |
| 2026-04-25 04:46 | 22.42224 | 113.52739 | 2896 ft | 162 kts | 198° |
| 2026-04-25 04:46 | 22.41148 | 113.52402 | 2906 ft | 159 kts | 198° |
| 2026-04-25 04:47 | 22.40081 | 113.52071 | 2904 ft | 160 kts | 198° |
| 2026-04-25 04:47 | 22.39003 | 113.51736 | 2899 ft | 163 kts | 198° |
| 2026-04-25 04:47 | 22.37940 | 113.51403 | 2902 ft | 159 kts | 198° |
| 2026-04-25 04:47 | 22.36865 | 113.51071 | 2896 ft | 162 kts | 197° |
| 2026-04-25 04:48 | 22.35780 | 113.50732 | 2896 ft | 163 kts | 197° |
| 2026-04-25 04:48 | 22.34688 | 113.50392 | 2895 ft | 163 kts | 198° |
| 2026-04-25 04:48 | 22.33598 | 113.50053 | 2894 ft | 163 kts | 197° |
| 2026-04-25 04:48 | 22.32505 | 113.49714 | 2891 ft | 163 kts | 197° |
| 2026-04-25 04:49 | 22.31406 | 113.49371 | 2897 ft | 165 kts | 198° |
| 2026-04-25 04:49 | 22.30308 | 113.49030 | 2894 ft | 163 kts | 198° |
| 2026-04-25 04:49 | 22.29213 | 113.48690 | 2894 ft | 164 kts | 198° |
| 2026-04-25 04:49 | 22.28123 | 113.48351 | 2896 ft | 162 kts | 198° |
| 2026-04-25 04:50 | 22.27047 | 113.48015 | 2902 ft | 156 kts | 198° |
| 2026-04-25 04:50 | 22.26006 | 113.47695 | 2887 ft | 156 kts | 198° |
| 2026-04-25 04:50 | 22.24961 | 113.47368 | 2893 ft | 156 kts | 198° |
| 2026-04-25 04:50 | 22.23917 | 113.47044 | 2890 ft | 156 kts | 198° |
| 2026-04-25 04:51 | 22.22873 | 113.46718 | 2893 ft | 156 kts | 200° |
| 2026-04-25 04:51 | 22.21960 | 113.46113 | 2889 ft | 156 kts | 228° |
| 2026-04-25 04:51 | 22.21415 | 113.45116 | 2886 ft | 155 kts | 251° |
| 2026-04-25 04:51 | 22.21070 | 113.44009 | 2891 ft | 156 kts | 255° |
| 2026-04-25 04:52 | 22.20743 | 113.42894 | 2900 ft | 156 kts | 255° |
| 2026-04-25 04:52 | 22.20385 | 113.41759 | 2899 ft | 161 kts | 255° |
| 2026-04-25 04:52 | 22.20006 | 113.40625 | 2900 ft | 162 kts | 255° |
| 2026-04-25 04:52 | 22.19607 | 113.39491 | 2904 ft | 160 kts | 248° |
| 2026-04-25 04:53 | 22.19197 | 113.38380 | 2900 ft | 162 kts | 253° |
| 2026-04-25 04:53 | 22.18744 | 113.37272 | 2892 ft | 163 kts | 242° |
| 2026-04-25 04:53 | 22.17953 | 113.36400 | 2786 ft | 165 kts | 217° |
| 2026-04-25 04:53 | 22.16922 | 113.35860 | 2616 ft | 166 kts | 201° |
| 2026-04-25 04:54 | 22.15789 | 113.35674 | 2442 ft | 165 kts | 179° |
| 2026-04-25 04:54 | 22.14656 | 113.35796 | 2266 ft | 164 kts | 173° |
| 2026-04-25 04:54 | 22.13535 | 113.35984 | 2135 ft | 162 kts | 171° |
| 2026-04-25 04:54 | 22.12423 | 113.36192 | 2088 ft | 160 kts | 171° |
| 2026-04-25 04:55 | 22.11313 | 113.36408 | 2045 ft | 165 kts | 171° |
| 2026-04-25 04:55 | 22.10187 | 113.36624 | 2044 ft | 164 kts | 171° |
| 2026-04-25 04:55 | 22.09080 | 113.36841 | 2037 ft | 161 kts | 171° |
| 2026-04-25 04:55 | 22.07968 | 113.36962 | 2041 ft | 161 kts | 188° |
| 2026-04-25 04:56 | 22.06949 | 113.36573 | 2053 ft | 149 kts | 214° |
| 2026-04-25 04:56 | 22.06091 | 113.35952 | 2035 ft | 149 kts | 220° |
| 2026-04-25 04:56 | 22.05261 | 113.35299 | 2042 ft | 146 kts | 220° |
| 2026-04-25 04:56 | 22.04442 | 113.34638 | 2037 ft | 148 kts | 221° |
| 2026-04-25 04:57 | 22.03626 | 113.33991 | 2033 ft | 147 kts | 221° |
| 2026-04-25 04:57 | 22.02804 | 113.33334 | 2035 ft | 147 kts | 220° |
| 2026-04-25 04:57 | 22.01987 | 113.32670 | 2039 ft | 147 kts | 221° |
| 2026-04-25 04:57 | 22.01162 | 113.32007 | 2031 ft | 148 kts | 219° |
| 2026-04-25 04:58 | 22.00348 | 113.31341 | 2043 ft | 148 kts | 221° |
| 2026-04-25 04:58 | 21.99497 | 113.30724 | 2036 ft | 148 kts | 206° |
| 2026-04-25 04:58 | 21.98512 | 113.30531 | 2033 ft | 144 kts | 177° |
| 2026-04-25 04:58 | 21.97591 | 113.30859 | 2029 ft | 139 kts | 147° |
| 2026-04-25 04:59 | 21.96826 | 113.31496 | 2017 ft | 138 kts | 139° |
| 2026-04-25 04:59 | 21.96201 | 113.32271 | 1939 ft | 137 kts | 114° |
| 2026-04-25 04:59 | 21.96014 | 113.33224 | 1856 ft | 127 kts | 83° |
| 2026-04-25 04:59 | 21.96328 | 113.34111 | 1759 ft | 126 kts | 54° |
| 2026-04-25 05:00 | 21.96958 | 113.34753 | 1480 ft | 125 kts | 46° |
| 2026-04-25 05:00 | 21.97582 | 113.35376 | 1164 ft | 114 kts | 45° |
| 2026-04-25 05:00 | 21.98182 | 113.35863 | 780 ft | 109 kts | 44° |
| 2026-04-25 05:00 | 21.98695 | 113.36430 | 836 ft | 97 kts | 49° |
| 2026-04-25 05:01 | 21.99129 | 113.36930 | 782 ft | 86 kts | 48° |
| 2026-04-25 05:01 | 21.99389 | 113.37434 | 715 ft | 78 kts | 104° |
| 2026-04-25 05:01 | 21.98948 | 113.37523 | 546 ft | 84 kts | 243° |
| 2026-04-25 05:01 | 21.99088 | 113.37043 | 416 ft | 79 kts | 344° |
| 2026-04-25 05:02 | 21.99588 | 113.36789 | 277 ft | 73 kts | 324° |
| 2026-04-25 05:02 | 21.99883 | 113.36480 | 142 ft | 45 kts | 322° |
| 2026-04-25 05:02 | 22.00041 | 113.36312 | 72 ft | 22 kts | 324° |
| 2026-04-25 05:02 | 22.00123 | 113.36213 | 64 ft | 20 kts | 320° |
| 2026-04-25 05:03 | 22.00197 | 113.36143 | 37 ft | 4 kts | 323° |
| 2026-04-25 05:03 | 22.00201 | 113.36140 | 28 ft | 0 kts | 320° |
| 2026-04-25 05:03 | 22.00227 | 113.36152 | 24 ft | 8 kts | 43° |
| 2026-04-25 05:03 | 22.00233 | 113.36158 | 24 ft | 0 kts | 43° |